Time;durP1;ratioP1;P1;durP2;ratioP2;P2;SDS_P1;SDS_P2;PMS_P1;PMS_P2;Temp;Humidity;BMP_temperature;BMP_pressure;BME280_temperature;BME280_humidity;BME280_pressure;Samples;Min_cycle;Max_cycle;Signal;HPM_P1;HPM_P2
2023/06/06 00:01:43;;;;;;;5.60;1.70;;;;;;;16.58;43.06;101544.21;109694;1241;73257;-73
2023/06/06 00:04:12;;;;;;;5.60;1.90;;;;;;;16.58;43.04;101546.05;109689;1243;71047;-73
2023/06/06 00:06:44;;;;;;;3.90;2.00;;;;;;;16.57;43.31;101545.95;109697;1242;70246;-73
2023/06/06 00:09:13;;;;;;;3.10;1.90;;;;;;;16.57;43.40;101546.66;109594;1241;74138;-73
2023/06/06 00:11:42;;;;;;;3.60;1.60;;;;;;;16.51;45.10;101549.61;109607;1244;62193;-70
2023/06/06 00:14:12;;;;;;;7.30;2.10;;;;;;;16.36;46.23;101551.39;109660;1244;61996;-70
2023/06/06 00:16:40;;;;;;;8.70;2.10;;;;;;;16.13;47.87;101549.98;109660;1242;73355;-71
2023/06/06 00:19:10;;;;;;;3.20;1.80;;;;;;;15.91;48.64;101554.96;109644;1244;72020;-70
2023/06/06 00:21:39;;;;;;;4.50;1.70;;;;;;;15.74;49.10;101552.30;109567;1242;71514;-72
2023/06/06 00:24:08;;;;;;;4.00;1.80;;;;;;;15.64;50.53;101556.77;109665;1242;62960;-70
2023/06/06 00:26:37;;;;;;;6.80;2.10;;;;;;;15.46;52.16;101550.30;109666;1244;57623;-71
2023/06/06 00:29:06;;;;;;;3.90;2.10;;;;;;;15.30;53.05;101547.17;109491;1241;57620;-72
2023/06/06 00:31:35;;;;;;;3.80;1.90;;;;;;;15.17;53.63;101547.88;109485;1241;74051;-72
2023/06/06 00:34:03;;;;;;;4.90;2.00;;;;;;;15.12;53.42;101547.52;109451;1241;71848;-72
2023/06/06 00:36:32;;;;;;;3.60;2.00;;;;;;;15.06;53.37;101547.26;109579;1241;60754;-70
2023/06/06 00:39:01;;;;;;;4.20;2.00;;;;;;;15.06;53.32;101546.76;109512;1244;62562;-70
2023/06/06 00:41:30;;;;;;;3.80;1.60;;;;;;;15.07;53.74;101547.42;109567;1245;57141;-73
2023/06/06 00:43:59;;;;;;;4.60;2.00;;;;;;;15.05;53.58;101544.95;109633;1244;61235;-71
2023/06/06 00:46:28;;;;;;;3.50;2.00;;;;;;;15.03;53.75;101538.77;109592;1241;74086;-71
2023/06/06 00:48:58;;;;;;;5.00;1.80;;;;;;;14.96;53.37;101533.14;109594;1241;61972;-71
2023/06/06 00:51:27;;;;;;;3.40;1.70;;;;;;;14.97;53.76;101538.87;109594;1241;59228;-71
2023/06/06 00:53:57;;;;;;;6.20;2.20;;;;;;;14.94;54.10;101532.98;109568;1243;62494;-71
2023/06/06 00:56:29;;;;;;;5.50;1.60;;;;;;;14.87;54.37;101524.06;109479;1245;61285;-71
2023/06/06 00:58:59;;;;;;;3.80;2.00;;;;;;;14.89;54.92;101533.00;109444;1241;57197;-71
2023/06/06 01:01:33;;;;;;;3.10;1.70;;;;;;;14.88;54.57;101529.27;109540;1241;73505;-71
2023/06/06 01:04:08;;;;;;;4.10;1.60;;;;;;;14.85;54.86;101532.91;109565;1241;61670;-70
2023/06/06 01:06:37;;;;;;;3.50;1.80;;;;;;;14.81;55.30;101534.83;109391;1241;60069;-70
2023/06/06 01:09:09;;;;;;;4.60;1.80;;;;;;;14.76;55.69;101534.76;109471;1241;63848;-71
2023/06/06 01:11:47;;;;;;;5.40;2.20;;;;;;;14.66;56.04;101532.00;109371;1245;60096;-71
2023/06/06 01:14:31;;;;;;;4.20;2.00;;;;;;;14.58;56.36;101533.16;109570;1242;60872;-71
2023/06/06 01:17:08;;;;;;;3.90;1.80;;;;;;;14.50;55.97;101530.02;109504;1241;74216;-71
2023/06/06 01:19:41;;;;;;;3.50;2.00;;;;;;;14.42;56.35;101531.86;109528;1241;72691;-71
2023/06/06 01:22:12;;;;;;;4.00;2.10;;;;;;;14.34;56.16;101533.50;109385;1241;70518;-71
2023/06/06 01:24:45;;;;;;;4.10;2.00;;;;;;;14.24;58.38;101533.75;109475;1241;73621;-71
2023/06/06 01:27:13;;;;;;;6.80;2.10;;;;;;;14.14;58.79;101539.75;109532;1242;61253;-72
2023/06/06 01:29:43;;;;;;;4.40;2.00;;;;;;;14.05;59.51;101539.52;109528;1241;60565;-71
2023/06/06 01:32:25;;;;;;;5.70;1.60;;;;;;;14.01;58.14;101537.32;109428;1241;73882;-71
2023/06/06 01:35:20;;;;;;;3.00;1.80;;;;;;;13.95;58.16;101539.22;109555;1241;71705;-72
2023/06/06 01:38:09;;;;;;;3.70;2.30;;;;;;;13.91;57.79;101540.71;109521;1241;59654;-72
2023/06/06 01:40:40;;;;;;;2.90;1.80;;;;;;;13.83;59.74;101541.51;109520;1241;73781;-70
2023/06/06 01:43:10;;;;;;;6.60;1.90;;;;;;;13.77;60.02;101542.81;109520;1243;57548;-71
2023/06/06 01:45:40;;;;;;;5.10;1.90;;;;;;;13.69;61.40;101542.52;109499;1241;60386;-72
2023/06/06 01:48:09;;;;;;;4.20;1.90;;;;;;;13.62;61.77;101542.69;109417;1241;63552;-72
2023/06/06 01:50:39;;;;;;;3.60;2.00;;;;;;;13.53;62.67;101540.12;109599;1241;61635;-72
2023/06/06 01:53:07;;;;;;;3.10;1.80;;;;;;;13.46;63.04;101544.13;109355;1240;70944;-72
2023/06/06 01:55:36;;;;;;;4.50;1.90;;;;;;;13.39;63.52;101542.88;109516;1242;62933;-72
2023/06/06 01:58:05;;;;;;;3.30;1.90;;;;;;;13.33;64.16;101546.64;109347;1245;60397;-71
2023/06/06 02:00:35;;;;;;;3.10;1.80;;;;;;;13.27;64.70;101547.27;109420;1241;61638;-71
2023/06/06 02:03:04;;;;;;;4.20;1.90;;;;;;;13.22;64.83;101548.29;109603;1242;73975;-71
2023/06/06 02:05:33;;;;;;;4.30;2.00;;;;;;;13.18;64.75;101552.25;109418;1241;72715;-71
2023/06/06 02:08:02;;;;;;;3.00;2.00;;;;;;;13.15;65.42;101551.90;109498;1241;70811;-71
2023/06/06 02:10:32;;;;;;;4.70;2.00;;;;;;;13.15;65.08;101552.80;109536;1241;62904;-70
2023/06/06 02:13:01;;;;;;;4.30;2.00;;;;;;;13.13;65.55;101555.52;109475;1245;60501;-71
2023/06/06 02:15:30;;;;;;;3.20;2.10;;;;;;;13.12;65.98;101556.66;109554;1241;61618;-71
2023/06/06 02:17:58;;;;;;;3.90;1.90;;;;;;;13.13;65.92;101561.47;109581;1240;73190;-72
2023/06/06 02:20:30;;;;;;;4.80;2.10;;;;;;;13.16;66.15;101559.54;109760;1240;72149;-72
2023/06/06 02:22:59;;;;;;;4.30;2.20;;;;;;;13.17;66.44;101559.64;109672;1241;70859;-74
2023/06/06 02:25:27;;;;;;;4.50;2.20;;;;;;;13.19;66.09;101557.40;109602;1241;74264;-71
2023/06/06 02:27:56;;;;;;;5.40;1.80;;;;;;;13.21;65.86;101557.25;109771;1243;57721;-71
2023/06/06 02:30:25;;;;;;;5.20;2.10;;;;;;;13.23;65.59;101558.34;109707;1245;57194;-72
2023/06/06 02:32:56;;;;;;;3.80;1.90;;;;;;;13.26;65.78;101558.48;109363;1245;337489;-73
2023/06/06 02:35:25;;;;;;;7.20;2.20;;;;;;;13.30;65.40;101561.95;109802;1241;70484;-72
2023/06/06 02:37:53;;;;;;;5.40;2.20;;;;;;;13.32;65.05;101566.67;109677;1241;71531;-73
2023/06/06 02:40:23;;;;;;;6.40;2.70;;;;;;;13.35;65.39;101567.20;109745;1241;63677;-72
2023/06/06 02:42:51;;;;;;;7.40;2.30;;;;;;;13.38;65.54;101559.45;109639;1245;61287;-71
2023/06/06 02:45:21;;;;;;;7.00;2.80;;;;;;;13.40;65.60;101564.33;109633;1241;61784;-71
2023/06/06 02:47:51;;;;;;;5.70;2.90;;;;;;;13.44;65.76;101564.42;109431;1245;63632;-72
2023/06/06 02:50:20;;;;;;;6.10;2.90;;;;;;;13.48;65.21;101563.42;109614;1241;62382;-71
2023/06/06 02:52:51;;;;;;;9.00;3.40;;;;;;;13.52;65.59;101564.21;109431;1241;60062;-70
2023/06/06 02:55:20;;;;;;;7.10;2.70;;;;;;;13.57;65.36;101565.10;109476;1245;62529;-73
2023/06/06 02:57:50;;;;;;;8.10;4.10;;;;;;;13.62;65.34;101561.91;109489;1244;61275;-72
2023/06/06 03:00:19;;;;;;;8.20;2.50;;;;;;;13.69;65.17;101561.55;109614;1241;61827;-73
2023/06/06 03:02:48;;;;;;;6.60;2.30;;;;;;;13.77;64.13;101563.44;109664;1241;74150;-72
2023/06/06 03:05:17;;;;;;;5.60;2.40;;;;;;;13.83;64.26;101561.32;109613;1241;72579;-73
2023/06/06 03:07:47;;;;;;;5.80;2.40;;;;;;;13.89;64.13;101565.39;109560;1241;70841;-74
2023/06/06 03:10:16;;;;;;;5.80;2.70;;;;;;;13.97;63.74;101558.29;109417;1242;72825;-73
2023/06/06 03:12:47;;;;;;;6.00;2.90;;;;;;;14.10;63.42;101562.13;109537;1244;61714;-74
2023/06/06 03:15:16;;;;;;;6.50;3.10;;;;;;;14.22;63.30;101561.71;109591;1241;57268;-74
2023/06/06 03:17:48;;;;;;;6.20;2.70;;;;;;;14.36;62.80;101562.24;109584;1244;62821;-74
2023/06/06 03:20:20;;;;;;;7.60;2.70;;;;;;;14.52;62.28;101558.66;109593;1241;71500;-73
2023/06/06 03:22:57;;;;;;;8.10;3.00;;;;;;;14.67;61.73;101562.07;109723;1241;70270;-70
2023/06/06 03:25:26;;;;;;;10.40;2.50;;;;;;;14.80;60.43;101557.88;109616;1244;73771;-71
2023/06/06 03:27:55;;;;;;;5.60;3.20;;;;;;;14.97;59.16;101557.13;109691;1245;61778;-72
2023/06/06 03:30:23;;;;;;;8.10;3.30;;;;;;;15.11;58.45;101559.73;109735;1241;61688;-72
2023/06/06 03:32:52;;;;;;;7.80;2.40;;;;;;;15.25;57.98;101557.75;109674;1241;64303;-71
2023/06/06 03:35:22;;;;;;;7.10;3.10;;;;;;;15.43;57.23;101562.34;109662;1241;72105;-72
2023/06/06 03:37:55;;;;;;;9.20;2.90;;;;;;;15.54;56.24;101561.72;109647;1244;60369;-73
2023/06/06 03:40:24;;;;;;;4.70;2.60;;;;;;;15.67;55.83;101563.35;109667;1242;63763;-71
2023/06/06 03:42:53;;;;;;;6.90;2.50;;;;;;;15.80;56.38;101565.48;109745;1245;57791;-72
2023/06/06 03:45:24;;;;;;;7.90;2.60;;;;;;;15.90;56.06;101567.52;109610;1241;57641;-72
2023/06/06 03:47:54;;;;;;;9.00;2.50;;;;;;;15.98;56.53;101564.04;109752;1245;62969;-71
2023/06/06 03:50:23;;;;;;;9.60;3.40;;;;;;;16.04;56.25;101562.83;109577;1241;61995;-71
2023/06/06 03:52:53;;;;;;;5.70;2.60;;;;;;;16.11;55.43;101560.11;109814;1242;60012;-72
2023/06/06 03:55:23;;;;;;;9.50;2.80;;;;;;;16.17;53.70;101565.30;109698;1244;74680;-71
2023/06/06 03:57:55;;;;;;;7.50;2.90;;;;;;;16.24;52.94;101566.79;109653;1242;57659;-72
2023/06/06 04:00:25;;;;;;;8.20;3.00;;;;;;;16.34;52.67;101566.50;109661;1245;57263;-72
2023/06/06 04:02:54;;;;;;;7.70;2.90;;;;;;;16.43;52.83;101564.48;109697;1241;62946;-72
2023/06/06 04:05:23;;;;;;;10.40;3.70;;;;;;;16.50;52.82;101567.33;109786;1242;61949;-71
2023/06/06 04:07:52;;;;;;;13.00;4.10;;;;;;;16.53;52.54;101565.83;109710;1245;59978;-72
2023/06/06 04:10:21;;;;;;;9.30;4.20;;;;;;;16.55;52.50;101560.88;109706;1242;64656;-73
2023/06/06 04:12:52;;;;;;;12.00;3.60;;;;;;;16.58;52.44;101556.42;109625;1245;57816;-72
2023/06/06 04:15:21;;;;;;;9.10;3.10;;;;;;;16.62;52.42;101556.61;109656;1245;57716;-73
2023/06/06 04:17:50;;;;;;;6.90;3.40;;;;;;;16.65;51.90;101556.30;109757;1241;62927;-73
2023/06/06 04:20:19;;;;;;;34.70;5.20;;;;;;;16.61;51.98;101559.09;109749;1241;72123;-71
2023/06/06 04:22:48;;;;;;;8.90;3.10;;;;;;;16.70;51.67;101561.04;109696;1241;69841;-72
2023/06/06 04:25:18;;;;;;;10.00;3.80;;;;;;;16.78;51.42;101561.95;109683;1241;74227;-72
2023/06/06 04:27:48;;;;;;;8.60;3.10;;;;;;;16.86;51.20;101563.34;109514;1245;57622;-72
2023/06/06 04:30:22;;;;;;;8.60;2.80;;;;;;;16.89;50.97;101563.08;109692;1240;57745;-71
2023/06/06 04:32:55;;;;;;;9.30;2.60;;;;;;;16.95;50.75;101564.91;109559;1245;62970;-72
2023/06/06 04:35:25;;;;;;;9.30;3.10;;;;;;;16.98;50.67;101569.07;109585;1245;62834;-72
2023/06/06 04:37:57;;;;;;;8.50;3.00;;;;;;;17.08;51.02;101571.70;109716;1242;68343;-72
2023/06/06 04:40:32;;;;;;;9.10;2.70;;;;;;;17.16;50.52;101570.64;109694;1241;73486;-72
2023/06/06 04:43:23;;;;;;;9.60;2.70;;;;;;;17.22;50.32;101570.30;109682;1244;60923;-72
2023/06/06 04:45:53;;;;;;;8.00;3.40;;;;;;;17.30;49.76;101568.04;109779;1242;62555;-73
2023/06/06 04:48:25;;;;;;;8.00;2.80;;;;;;;17.33;49.48;101568.06;109772;1242;63299;-73
2023/06/06 04:50:55;;;;;;;7.00;2.90;;;;;;;17.48;49.54;101575.41;109714;1241;71474;-72
2023/06/06 04:53:25;;;;;;;9.20;3.50;;;;;;;17.63;49.29;101577.59;109607;1241;71039;-74
2023/06/06 04:55:55;;;;;;;8.00;2.90;;;;;;;17.80;48.96;101575.30;109750;1242;71949;-73
2023/06/06 04:58:28;;;;;;;11.20;2.90;;;;;;;17.89;48.41;101577.11;109609;1244;61789;-72
2023/06/06 05:00:57;;;;;;;8.00;2.80;;;;;;;17.97;47.94;101578.25;109611;1245;57775;-73
2023/06/06 05:03:27;;;;;;;5.90;3.00;;;;;;;18.02;47.43;101576.98;109742;1245;62983;-72
2023/06/06 05:05:58;;;;;;;7.80;3.10;;;;;;;18.15;47.04;101574.56;109557;1248;61813;-73
2023/06/06 05:08:31;;;;;;;11.90;3.30;;;;;;;18.28;46.56;101576.34;109543;1241;69870;-75
2023/06/06 05:11:00;;;;;;;7.30;3.10;;;;;;;18.45;46.53;101575.58;109777;1242;63668;-72
2023/06/06 05:13:29;;;;;;;7.10;2.70;;;;;;;18.63;46.41;101576.70;109777;1241;60532;-75
2023/06/06 05:15:57;;;;;;;10.00;3.30;;;;;;;18.85;45.69;101578.89;109780;1242;61628;-75
2023/06/06 05:18:28;;;;;;;9.60;3.20;;;;;;;19.04;45.30;101582.17;109809;1242;62918;-84
2023/06/06 05:21:01;;;;;;;7.80;3.00;;;;;;;19.10;43.12;101582.35;109721;1241;70213;-69
2023/06/06 05:23:31;;;;;;;6.40;3.10;;;;;;;18.97;42.02;101579.66;109785;1241;71079;-72
2023/06/06 05:26:00;;;;;;;10.40;3.40;;;;;;;19.16;42.15;101581.80;109706;1241;75128;-68
2023/06/06 05:28:29;;;;;;;9.40;2.90;;;;;;;19.17;41.96;101579.60;109780;1242;57156;-68
2023/06/06 05:30:58;;;;;;;8.30;3.00;;;;;;;19.22;41.15;101579.63;109688;1244;57383;-69
2023/06/06 05:33:27;;;;;;;7.20;2.90;;;;;;;19.34;40.25;101579.35;109799;1241;63029;-68
2023/06/06 05:35:56;;;;;;;9.40;2.90;;;;;;;19.36;39.81;101575.77;109768;1242;61621;-68
2023/06/06 05:38:26;;;;;;;6.50;2.90;;;;;;;19.48;39.75;101576.91;109616;1242;59977;-69
2023/06/06 05:40:55;;;;;;;8.80;3.20;;;;;;;19.56;39.26;101580.75;109563;1241;65135;-70
2023/06/06 05:43:24;;;;;;;10.90;3.10;;;;;;;19.76;39.46;101582.38;109723;1241;57337;-69
2023/06/06 05:45:53;;;;;;;8.00;3.30;;;;;;;20.00;39.31;101583.91;109647;1240;57297;-68
2023/06/06 05:48:22;;;;;;;12.80;3.40;;;;;;;20.14;39.16;101582.38;109742;1240;63051;-67
2023/06/06 05:50:51;;;;;;;14.30;3.30;;;;;;;20.32;39.14;101583.05;109672;1241;61678;-68
2023/06/06 05:53:21;;;;;;;11.80;3.10;;;;;;;20.60;37.96;101582.85;109657;1241;60001;-69
2023/06/06 05:55:50;;;;;;;10.10;3.20;;;;;;;20.76;37.00;101582.33;109567;1241;74334;-69
2023/06/06 05:58:20;;;;;;;7.40;3.10;;;;;;;20.92;36.11;101577.72;109668;1244;57245;-69
2023/06/06 06:00:49;;;;;;;11.40;3.30;;;;;;;20.99;34.86;101578.16;109563;1241;61201;-69
2023/06/06 06:03:18;;;;;;;8.80;3.00;;;;;;;21.22;35.28;101580.04;109611;1241;63724;-67
2023/06/06 06:05:47;;;;;;;9.80;3.50;;;;;;;21.39;34.67;101583.23;109623;1241;60837;-69
2023/06/06 06:08:17;;;;;;;12.40;3.40;;;;;;;21.47;34.29;101585.81;109680;1241;59291;-68
2023/06/06 06:10:46;;;;;;;7.10;2.90;;;;;;;21.58;33.98;101583.41;109657;1241;63951;-69
2023/06/06 06:13:15;;;;;;;9.10;2.80;;;;;;;21.79;33.70;101584.83;109680;1242;57729;-68
2023/06/06 06:15:44;;;;;;;5.90;2.50;;;;;;;21.76;33.40;101585.31;109679;1241;57073;-69
2023/06/06 06:18:14;;;;;;;7.00;3.00;;;;;;;21.99;33.49;101580.85;109477;1241;62202;-67
2023/06/06 06:20:43;;;;;;;8.80;3.20;;;;;;;22.01;32.88;101586.69;109517;1241;62386;-68
2023/06/06 06:23:12;;;;;;;5.90;3.00;;;;;;;22.04;33.06;101587.73;109503;1241;59955;-68
2023/06/06 06:25:41;;;;;;;6.90;3.10;;;;;;;22.19;32.85;101585.60;109481;1241;62579;-69
2023/06/06 06:28:20;;;;;;;9.50;3.50;;;;;;;22.28;32.65;101585.15;109533;1241;60355;-68
2023/06/06 06:30:49;;;;;;;6.10;2.80;;;;;;;22.31;32.97;101584.82;109446;1244;57696;-70
2023/06/06 06:33:22;;;;;;;5.20;2.90;;;;;;;22.60;32.81;101585.77;109458;1243;63635;-68
2023/06/06 06:35:51;;;;;;;5.70;2.90;;;;;;;22.73;32.32;101585.11;109540;1241;60900;-68
2023/06/06 06:38:20;;;;;;;8.20;3.10;;;;;;;22.45;32.38;101583.45;109537;1241;69707;-68
2023/06/06 06:40:49;;;;;;;6.50;3.20;;;;;;;22.90;32.12;101587.43;109703;1240;63869;-68
2023/06/06 06:43:18;;;;;;;7.60;3.20;;;;;;;23.13;32.27;101587.66;109727;1241;61263;-68
2023/06/06 06:45:53;;;;;;;5.40;3.30;;;;;;;23.25;32.05;101586.98;109606;1241;61558;-69
2023/06/06 06:48:22;;;;;;;8.70;2.90;;;;;;;23.21;31.62;101588.34;109618;1241;74659;-69
2023/06/06 06:50:52;;;;;;;8.20;3.20;;;;;;;22.90;31.34;101592.08;109711;1242;72505;-69
2023/06/06 06:53:25;;;;;;;9.30;3.70;;;;;;;22.88;31.32;101589.17;109742;1241;71479;-68
2023/06/06 06:55:54;;;;;;;7.00;3.00;;;;;;;22.95;31.60;101593.73;109570;1241;73895;-69
2023/06/06 06:58:25;;;;;;;5.20;2.60;;;;;;;23.27;31.11;101589.80;109528;1245;62305;-68
2023/06/06 07:00:54;;;;;;;6.10;2.60;;;;;;;23.43;31.48;101594.37;109756;1241;57740;-68
2023/06/06 07:03:23;;;;;;;7.40;3.00;;;;;;;23.42;31.04;101597.17;109620;1240;63523;-67
2023/06/06 07:05:53;;;;;;;7.70;2.70;;;;;;;23.41;30.93;101597.45;109718;1241;72042;-68
2023/06/06 07:08:22;;;;;;;8.30;3.10;;;;;;;23.47;30.80;101597.14;109754;1240;70993;-68
2023/06/06 07:10:51;;;;;;;4.60;2.50;;;;;;;23.49;30.78;101599.25;109708;1241;73641;-69
2023/06/06 07:13:19;;;;;;;9.00;2.70;;;;;;;23.59;30.64;101594.17;109563;1241;60840;-68
2023/06/06 07:15:48;;;;;;;8.10;2.90;;;;;;;23.58;30.59;101601.05;109775;1241;57263;-68
2023/06/06 07:18:17;;;;;;;6.00;2.90;;;;;;;23.60;30.90;101601.01;109719;1241;65051;-69
2023/06/06 07:20:47;;;;;;;5.70;3.10;;;;;;;23.63;30.91;101598.16;109631;1245;61675;-70
2023/06/06 07:23:16;;;;;;;4.50;2.80;;;;;;;23.57;30.99;101601.75;109659;1241;68697;-69
2023/06/06 07:25:45;;;;;;;7.60;3.00;;;;;;;23.48;31.52;101601.35;109699;1241;73186;-68
2023/06/06 07:28:15;;;;;;;7.10;3.00;;;;;;;23.37;31.77;101600.27;109717;1241;60086;-67
2023/06/06 07:30:44;;;;;;;6.90;3.00;;;;;;;23.12;31.79;101602.33;109569;1240;57745;-68
2023/06/06 07:33:13;;;;;;;6.90;2.70;;;;;;;23.28;31.68;101603.63;109760;1240;63445;-68
2023/06/06 07:35:43;;;;;;;8.00;3.00;;;;;;;23.68;31.25;101600.80;109565;1241;64031;-69
2023/06/06 07:38:13;;;;;;;13.50;2.70;;;;;;;23.83;31.16;101599.42;109565;1241;61671;-69
2023/06/06 07:40:42;;;;;;;7.00;3.00;;;;;;;23.83;31.00;101597.48;109763;1241;63726;-74
2023/06/06 07:43:11;;;;;;;7.30;2.40;;;;;;;23.86;31.06;101599.64;109780;1242;57354;-75
2023/06/06 07:45:40;;;;;;;5.30;2.50;;;;;;;23.87;31.07;101598.27;109543;1241;57248;-74
2023/06/06 07:48:09;;;;;;;7.30;2.50;;;;;;;24.16;30.75;101597.43;109697;1241;72525;-73
2023/06/06 07:50:38;;;;;;;6.30;2.80;;;;;;;24.07;31.30;101600.27;109701;1241;61779;-74
2023/06/06 07:53:07;;;;;;;12.20;3.50;;;;;;;24.18;31.26;101600.22;109743;1241;59239;-74
2023/06/06 07:55:37;;;;;;;6.30;3.00;;;;;;;24.37;30.70;101596.04;109680;1241;63411;-74
2023/06/06 07:58:11;;;;;;;8.50;2.70;;;;;;;24.42;31.08;101599.95;109736;1240;61915;-74
2023/06/06 08:00:40;;;;;;;5.20;2.80;;;;;;;24.18;31.23;101594.84;109709;1241;57775;-73
2023/06/06 08:03:11;;;;;;;5.90;2.90;;;;;;;23.43;31.85;101588.08;109711;1241;73288;-74
2023/06/06 08:05:40;;;;;;;4.80;2.60;;;;;;;23.45;32.29;101588.14;109694;1241;72650;-73
2023/06/06 08:08:11;;;;;;;6.90;2.50;;;;;;;23.48;32.05;101592.46;109686;1241;59389;-74
2023/06/06 08:10:40;;;;;;;5.30;2.80;;;;;;;23.71;32.17;101588.75;109720;1241;62452;-74
2023/06/06 08:13:09;;;;;;;7.00;2.80;;;;;;;23.95;32.04;101584.88;109697;1242;57792;-74
2023/06/06 08:15:38;;;;;;;4.20;1.70;;;;;;;24.08;31.43;101586.29;109750;1242;58176;-73
2023/06/06 08:18:07;;;;;;;4.60;2.30;;;;;;;24.22;30.84;101583.85;109398;1241;73250;-73
2023/06/06 08:20:36;;;;;;;4.80;2.50;;;;;;;24.01;31.32;101581.20;109744;1241;72641;-74
2023/06/06 08:23:04;;;;;;;12.90;3.50;;;;;;;24.03;30.88;101584.22;109658;1241;71536;-73
2023/06/06 08:25:39;;;;;;;4.70;2.30;;;;;;;24.27;30.90;101585.39;109711;1240;74321;-73
2023/06/06 08:28:07;;;;;;;6.10;2.50;;;;;;;24.25;30.36;101581.20;109592;1244;62575;-74
2023/06/06 08:30:36;;;;;;;5.80;2.70;;;;;;;24.24;30.40;101576.79;109623;1241;62499;-74
2023/06/06 08:33:05;;;;;;;9.80;3.00;;;;;;;24.51;30.73;101573.27;109811;1241;74841;-74
2023/06/06 08:35:34;;;;;;;9.30;2.50;;;;;;;24.61;29.79;101573.27;109573;1241;73366;-74
2023/06/06 08:38:03;;;;;;;5.10;2.20;;;;;;;24.90;29.31;101568.02;109774;1241;60443;-73
2023/06/06 08:40:32;;;;;;;7.00;2.20;;;;;;;25.22;29.09;101563.42;109767;1240;63319;-74
2023/06/06 08:43:02;;;;;;;5.20;2.00;;;;;;;25.20;29.04;101563.77;109715;1241;57936;-75
2023/06/06 08:45:31;;;;;;;8.60;2.40;;;;;;;25.08;28.63;101560.67;109628;1241;61235;-74
2023/06/06 08:48:05;;;;;;;6.60;2.20;;;;;;;24.88;28.95;101557.23;109666;1241;74709;-74
2023/06/06 08:50:38;;;;;;;20.00;3.10;;;;;;;25.08;28.73;101552.86;109643;1241;63890;-74
2023/06/06 08:53:07;;;;;;;6.60;2.20;;;;;;;24.98;28.21;101548.73;109675;1241;59778;-74
2023/06/06 08:55:37;;;;;;;7.10;2.80;;;;;;;24.93;28.35;101547.39;109667;1241;73691;-74
2023/06/06 08:58:06;;;;;;;5.00;2.10;;;;;;;25.24;28.37;101551.30;109722;1242;61867;-73
2023/06/06 09:00:35;;;;;;;6.90;2.50;;;;;;;25.51;27.95;101548.50;109687;1241;57760;-73
2023/06/06 09:03:06;;;;;;;4.70;2.10;;;;;;;25.35;27.93;101542.30;109711;1241;63766;-74
2023/06/06 09:05:38;;;;;;;8.60;2.60;;;;;;;24.88;28.09;101535.15;109682;1241;72825;-74
2023/06/06 09:08:07;;;;;;;7.60;2.40;;;;;;;25.26;27.79;101532.90;109442;1240;69937;-74
2023/06/06 09:10:39;;;;;;;4.80;2.40;;;;;;;25.27;28.03;101525.10;109459;1241;74197;-75
2023/06/06 09:13:08;;;;;;;5.40;2.20;;;;;;;25.40;28.03;101527.43;109420;1242;62310;-74
2023/06/06 09:15:37;;;;;;;6.00;1.90;;;;;;;25.74;27.68;101528.59;109492;1240;61051;-73
2023/06/06 09:18:06;;;;;;;4.90;2.10;;;;;;;25.77;27.54;101528.16;109569;1240;74075;-74
2023/06/06 09:20:35;;;;;;;3.70;2.20;;;;;;;25.92;27.37;101526.88;109551;1241;63055;-74
2023/06/06 09:23:10;;;;;;;5.30;2.30;;;;;;;25.86;27.40;101522.79;109558;1241;61315;-76
2023/06/06 09:25:47;;;;;;;12.20;2.40;;;;;;;26.09;26.92;101513.85;109538;1241;73410;-75
2023/06/06 09:28:18;;;;;;;7.40;2.10;;;;;;;26.04;26.58;101517.66;109462;1244;58223;-77
2023/06/06 09:30:47;;;;;;;7.30;2.40;;;;;;;25.24;27.28;101512.83;109448;1241;60421;-74
2023/06/06 09:33:16;;;;;;;8.90;2.20;;;;;;;25.50;26.95;101519.19;109685;1241;74781;-76
2023/06/06 09:35:45;;;;;;;4.80;2.50;;;;;;;25.48;26.60;101513.41;109652;1241;72722;-75
2023/06/06 09:38:18;;;;;;;6.60;2.30;;;;;;;25.62;27.09;101519.82;109628;1241;61741;-74
2023/06/06 09:40:50;;;;;;;8.20;2.50;;;;;;;25.67;26.69;101520.61;109553;1241;64936;-74
2023/06/06 09:43:26;;;;;;;7.70;2.30;;;;;;;25.56;26.88;101518.52;109701;1241;58300;-75
2023/06/06 09:45:55;;;;;;;6.90;2.60;;;;;;;25.69;26.82;101517.91;109508;1241;60486;-74
2023/06/06 09:48:27;;;;;;;5.50;2.20;;;;;;;25.48;27.31;101514.30;109761;1241;74125;-74
2023/06/06 09:51:00;;;;;;;5.70;2.00;;;;;;;25.46;27.06;101511.34;109646;1244;62103;-74
2023/06/06 09:53:31;;;;;;;5.40;2.30;;;;;;;25.44;27.59;101510.20;109748;1241;59510;-75
2023/06/06 09:56:03;;;;;;;5.10;2.20;;;;;;;25.45;27.73;101513.95;109722;1241;63298;-74
2023/06/06 09:58:35;;;;;;;5.90;2.50;;;;;;;25.73;27.43;101516.39;109702;1242;60568;-75
2023/06/06 10:01:06;;;;;;;7.40;2.50;;;;;;;25.93;27.25;101509.08;109647;1240;61767;-74
2023/06/06 10:03:37;;;;;;;9.20;2.70;;;;;;;26.21;27.20;101512.48;109560;1241;75821;-75
2023/06/06 10:06:09;;;;;;;8.40;2.60;;;;;;;26.29;27.18;101507.67;109734;1241;71541;-74
2023/06/06 10:08:39;;;;;;;6.40;3.00;;;;;;;26.61;27.11;101501.88;109562;1241;69586;-73
2023/06/06 10:11:09;;;;;;;5.50;2.20;;;;;;;26.75;27.15;101497.75;109528;1241;74830;-75
2023/06/06 10:13:38;;;;;;;5.00;2.30;;;;;;;26.67;27.34;101491.97;109485;1241;61073;-73
2023/06/06 10:16:09;;;;;;;8.90;2.40;;;;;;;26.45;27.36;101491.92;109508;1241;61167;-74
2023/06/06 10:18:41;;;;;;;4.90;2.20;;;;;;;26.42;27.47;101495.55;109583;1244;64205;-73
2023/06/06 10:21:11;;;;;;;9.50;3.40;;;;;;;26.70;27.39;101482.42;109775;1241;63372;-75
2023/06/06 10:23:40;;;;;;;5.10;2.50;;;;;;;26.83;27.01;101480.02;109538;1245;59583;-75
2023/06/06 10:26:20;;;;;;;6.30;2.80;;;;;;;26.84;27.11;101480.48;109557;1245;63283;-74
2023/06/06 10:29:14;;;;;;;10.30;3.00;;;;;;;26.94;26.74;101476.61;109623;1244;58413;-74
2023/06/06 10:31:56;;;;;;;7.00;3.00;;;;;;;27.11;26.60;101480.92;109668;1244;57870;-73
2023/06/06 10:34:40;;;;;;;5.80;2.50;;;;;;;27.03;26.76;101475.63;109665;1242;63781;-73
2023/06/06 10:37:21;;;;;;;7.90;2.30;;;;;;;28.01;25.64;101468.51;109619;1244;61077;-73
2023/06/06 10:40:07;;;;;;;6.80;2.20;;;;;;;27.89;25.82;101462.35;109755;1241;69629;-73
2023/06/06 10:42:39;;;;;;;7.80;2.90;;;;;;;28.25;25.73;101464.38;109520;1245;63654;-72
2023/06/06 10:45:10;;;;;;;7.80;2.60;;;;;;;28.74;25.11;101460.73;109609;1244;58337;-72
2023/06/06 10:47:42;;;;;;;5.00;2.40;;;;;;;28.44;25.58;101459.09;109740;1242;57655;-72
2023/06/06 10:50:13;;;;;;;4.60;2.60;;;;;;;28.39;25.26;101456.02;109762;1242;63749;-73
2023/06/06 10:52:51;;;;;;;6.90;2.50;;;;;;;27.75;25.59;101456.66;109744;1242;61844;-74
2023/06/06 10:55:20;;;;;;;4.90;2.40;;;;;;;27.04;26.16;101452.27;109653;1242;60443;-73
2023/06/06 10:57:54;;;;;;;4.40;2.40;;;;;;;27.36;25.83;101450.05;109726;1243;62496;-73
2023/06/06 11:00:25;;;;;;;4.80;2.60;;;;;;;27.59;25.92;101451.68;109629;1244;58293;-73
2023/06/06 11:03:00;;;;;;;6.00;2.20;;;;;;;27.64;25.45;101453.77;109596;1245;58235;-73
2023/06/06 11:05:29;;;;;;;5.90;2.70;;;;;;;27.12;25.77;101447.70;109515;1241;74314;-73
2023/06/06 11:08:02;;;;;;;5.00;2.60;;;;;;;27.40;25.29;101443.88;109756;1241;71543;-72
2023/06/06 11:10:48;;;;;;;8.60;2.60;;;;;;;27.07;25.53;101441.55;109554;1245;60573;-73
2023/06/06 11:13:29;;;;;;;5.00;2.20;;;;;;;27.20;25.51;101442.46;109718;1241;73784;-75
2023/06/06 11:15:58;;;;;;;4.50;2.20;;;;;;;26.55;26.34;101441.14;109674;1241;60591;-74
2023/06/06 11:18:40;;;;;;;3.70;2.20;;;;;;;26.90;26.21;101437.58;109500;1241;57848;-73
2023/06/06 11:21:09;;;;;;;7.80;2.20;;;;;;;27.20;25.63;101430.88;109482;1240;74833;-76
2023/06/06 11:23:42;;;;;;;6.70;2.30;;;;;;;26.80;25.96;101433.59;109385;1245;73329;-75
2023/06/06 11:26:11;;;;;;;5.60;2.60;;;;;;;26.80;25.53;101439.55;109565;1242;60619;-75
2023/06/06 11:28:40;;;;;;;6.50;2.50;;;;;;;26.70;25.46;101432.11;109522;1241;64394;-75
2023/06/06 11:31:10;;;;;;;5.50;2.40;;;;;;;27.10;25.31;101432.16;109563;1242;58322;-74
2023/06/06 11:33:40;;;;;;;6.50;2.40;;;;;;;27.64;24.68;101428.84;109622;1244;58338;-73